sensor_id;sensor_type;location;lat;lon;timestamp;P1;durP1;ratioP1;P2;durP2;ratioP2
41943;SDS011;27636;52.610;13.244;2023-05-20T00:03:35;5.75;;;1.85;;
41943;SDS011;27636;52.610;13.244;2023-05-20T00:08:40;5.95;;;2.33;;
41943;SDS011;27636;52.610;13.244;2023-05-20T00:13:44;5.80;;;2.38;;
41943;SDS011;27636;52.610;13.244;2023-05-20T00:18:47;6.65;;;2.80;;
41943;SDS011;27636;52.610;13.244;2023-05-20T00:23:52;5.55;;;2.20;;
41943;SDS011;27636;52.610;13.244;2023-05-20T00:28:56;6.45;;;2.40;;
41943;SDS011;27636;52.610;13.244;2023-05-20T00:34:00;9.37;;;2.30;;
41943;SDS011;27636;52.610;13.244;2023-05-20T00:39:05;7.38;;;2.20;;
41943;SDS011;27636;52.610;13.244;2023-05-20T00:44:08;10.60;;;2.72;;
41943;SDS011;27636;52.610;13.244;2023-05-20T00:49:12;5.50;;;2.53;;
41943;SDS011;27636;52.610;13.244;2023-05-20T00:54:17;5.88;;;2.30;;
41943;SDS011;27636;52.610;13.244;2023-05-20T01:04:24;5.13;;;2.10;;
41943;SDS011;27636;52.610;13.244;2023-05-20T01:09:30;5.10;;;2.30;;
41943;SDS011;27636;52.610;13.244;2023-05-20T01:14:36;6.25;;;2.72;;
41943;SDS011;27636;52.610;13.244;2023-05-20T01:19:44;4.80;;;2.35;;
41943;SDS011;27636;52.610;13.244;2023-05-20T01:24:49;7.78;;;2.80;;
41943;SDS011;27636;52.610;13.244;2023-05-20T01:29:55;6.63;;;2.63;;
41943;SDS011;27636;52.610;13.244;2023-05-20T01:35:00;5.50;;;2.22;;
41943;SDS011;27636;52.610;13.244;2023-05-20T01:40:07;7.38;;;2.47;;
41943;SDS011;27636;52.610;13.244;2023-05-20T01:45:12;5.80;;;2.70;;
41943;SDS011;27636;52.610;13.244;2023-05-20T01:50:15;5.70;;;2.45;;
41943;SDS011;27636;52.610;13.244;2023-05-20T01:55:21;10.88;;;2.75;;
41943;SDS011;27636;52.610;13.244;2023-05-20T02:05:28;5.43;;;2.45;;
41943;SDS011;27636;52.610;13.244;2023-05-20T02:10:34;5.90;;;2.43;;
41943;SDS011;27636;52.610;13.244;2023-05-20T02:15:39;8.90;;;2.90;;
41943;SDS011;27636;52.610;13.244;2023-05-20T02:20:43;5.72;;;2.83;;
41943;SDS011;27636;52.610;13.244;2023-05-20T02:25:48;6.60;;;2.65;;
41943;SDS011;27636;52.610;13.244;2023-05-20T02:35:55;6.45;;;2.65;;
41943;SDS011;27636;52.610;13.244;2023-05-20T02:41:00;7.55;;;2.88;;
41943;SDS011;27636;52.610;13.244;2023-05-20T02:46:06;5.78;;;2.67;;
41943;SDS011;27636;52.610;13.244;2023-05-20T02:51:09;7.15;;;2.75;;
41943;SDS011;27636;52.610;13.244;2023-05-20T02:56:15;6.00;;;2.40;;
41943;SDS011;27636;52.610;13.244;2023-05-20T03:01:18;6.60;;;2.88;;
41943;SDS011;27636;52.610;13.244;2023-05-20T03:06:22;8.70;;;2.83;;
41943;SDS011;27636;52.610;13.244;2023-05-20T03:11:27;6.90;;;2.78;;
41943;SDS011;27636;52.610;13.244;2023-05-20T03:16:31;9.00;;;2.67;;
41943;SDS011;27636;52.610;13.244;2023-05-20T03:21:37;11.60;;;3.10;;
41943;SDS011;27636;52.610;13.244;2023-05-20T03:26:42;9.07;;;2.75;;
41943;SDS011;27636;52.610;13.244;2023-05-20T03:31:48;7.90;;;3.10;;
41943;SDS011;27636;52.610;13.244;2023-05-20T03:36:52;10.05;;;3.15;;
41943;SDS011;27636;52.610;13.244;2023-05-20T03:41:57;6.07;;;2.90;;
41943;SDS011;27636;52.610;13.244;2023-05-20T03:47:00;8.98;;;2.90;;
41943;SDS011;27636;52.610;13.244;2023-05-20T03:57:11;10.05;;;2.58;;
41943;SDS011;27636;52.610;13.244;2023-05-20T04:02:15;16.85;;;3.38;;
41943;SDS011;27636;52.610;13.244;2023-05-20T04:07:19;11.25;;;3.40;;
41943;SDS011;27636;52.610;13.244;2023-05-20T04:12:24;5.47;;;2.67;;
41943;SDS011;27636;52.610;13.244;2023-05-20T04:17:32;6.80;;;2.92;;
41943;SDS011;27636;52.610;13.244;2023-05-20T04:22:39;9.00;;;2.72;;
41943;SDS011;27636;52.610;13.244;2023-05-20T04:27:44;8.23;;;2.85;;
41943;SDS011;27636;52.610;13.244;2023-05-20T04:32:48;5.40;;;2.53;;
41943;SDS011;27636;52.610;13.244;2023-05-20T04:37:53;7.35;;;2.95;;
41943;SDS011;27636;52.610;13.244;2023-05-20T04:42:59;6.18;;;2.88;;
41943;SDS011;27636;52.610;13.244;2023-05-20T04:48:04;7.90;;;3.28;;
41943;SDS011;27636;52.610;13.244;2023-05-20T04:53:10;8.45;;;3.40;;
41943;SDS011;27636;52.610;13.244;2023-05-20T04:58:16;8.38;;;3.22;;
41943;SDS011;27636;52.610;13.244;2023-05-20T05:03:19;7.22;;;3.63;;
41943;SDS011;27636;52.610;13.244;2023-05-20T05:08:24;8.07;;;3.83;;
41943;SDS011;27636;52.610;13.244;2023-05-20T05:13:30;7.88;;;2.92;;
41943;SDS011;27636;52.610;13.244;2023-05-20T05:18:34;10.25;;;3.25;;
41943;SDS011;27636;52.610;13.244;2023-05-20T05:23:37;9.07;;;3.05;;
41943;SDS011;27636;52.610;13.244;2023-05-20T05:28:43;10.18;;;3.33;;
41943;SDS011;27636;52.610;13.244;2023-05-20T05:33:46;12.45;;;3.33;;
41943;SDS011;27636;52.610;13.244;2023-05-20T05:38:50;8.77;;;3.00;;
41943;SDS011;27636;52.610;13.244;2023-05-20T05:43:55;8.27;;;3.50;;
41943;SDS011;27636;52.610;13.244;2023-05-20T05:49:00;9.18;;;3.50;;
41943;SDS011;27636;52.610;13.244;2023-05-20T05:54:04;9.43;;;4.00;;
41943;SDS011;27636;52.610;13.244;2023-05-20T05:59:09;14.98;;;4.50;;
41943;SDS011;27636;52.610;13.244;2023-05-20T06:04:13;13.07;;;3.28;;
41943;SDS011;27636;52.610;13.244;2023-05-20T06:09:16;8.93;;;3.22;;
41943;SDS011;27636;52.610;13.244;2023-05-20T06:14:21;7.80;;;3.67;;
41943;SDS011;27636;52.610;13.244;2023-05-20T06:19:25;10.93;;;3.22;;
41943;SDS011;27636;52.610;13.244;2023-05-20T06:24:28;8.85;;;3.47;;
41943;SDS011;27636;52.610;13.244;2023-05-20T06:29:34;7.07;;;3.08;;
41943;SDS011;27636;52.610;13.244;2023-05-20T06:39:42;11.82;;;3.60;;
41943;SDS011;27636;52.610;13.244;2023-05-20T06:44:47;10.40;;;3.80;;
41943;SDS011;27636;52.610;13.244;2023-05-20T06:50:09;9.82;;;3.10;;
41943;SDS011;27636;52.610;13.244;2023-05-20T06:55:13;11.13;;;3.42;;
41943;SDS011;27636;52.610;13.244;2023-05-20T07:00:20;7.60;;;3.38;;
41943;SDS011;27636;52.610;13.244;2023-05-20T07:05:23;10.55;;;3.75;;
41943;SDS011;27636;52.610;13.244;2023-05-20T07:10:28;8.60;;;3.10;;
41943;SDS011;27636;52.610;13.244;2023-05-20T07:15:33;16.95;;;4.15;;
41943;SDS011;27636;52.610;13.244;2023-05-20T07:20:37;8.07;;;3.40;;
41943;SDS011;27636;52.610;13.244;2023-05-20T07:25:46;9.10;;;3.95;;
41943;SDS011;27636;52.610;13.244;2023-05-20T07:30:51;9.55;;;3.70;;
41943;SDS011;27636;52.610;13.244;2023-05-20T07:36:03;7.05;;;3.20;;
41943;SDS011;27636;52.610;13.244;2023-05-20T07:41:06;11.48;;;3.55;;
41943;SDS011;27636;52.610;13.244;2023-05-20T07:46:11;9.05;;;3.42;;
41943;SDS011;27636;52.610;13.244;2023-05-20T07:51:15;8.63;;;3.28;;
41943;SDS011;27636;52.610;13.244;2023-05-20T07:56:18;8.02;;;2.95;;
41943;SDS011;27636;52.610;13.244;2023-05-20T08:01:25;10.30;;;3.83;;
41943;SDS011;27636;52.610;13.244;2023-05-20T08:06:30;7.55;;;3.10;;
41943;SDS011;27636;52.610;13.244;2023-05-20T08:11:35;8.95;;;3.60;;
41943;SDS011;27636;52.610;13.244;2023-05-20T08:16:42;8.40;;;3.35;;
41943;SDS011;27636;52.610;13.244;2023-05-20T08:21:45;10.82;;;3.90;;
41943;SDS011;27636;52.610;13.244;2023-05-20T08:26:49;9.23;;;3.22;;
41943;SDS011;27636;52.610;13.244;2023-05-20T08:31:56;9.90;;;3.60;;
41943;SDS011;27636;52.610;13.244;2023-05-20T08:37:01;15.70;;;4.43;;
41943;SDS011;27636;52.610;13.244;2023-05-20T08:42:04;10.27;;;3.35;;
41943;SDS011;27636;52.610;13.244;2023-05-20T08:47:11;10.85;;;4.00;;
41943;SDS011;27636;52.610;13.244;2023-05-20T08:52:15;8.65;;;3.67;;
41943;SDS011;27636;52.610;13.244;2023-05-20T08:57:22;8.77;;;3.75;;
41943;SDS011;27636;52.610;13.244;2023-05-20T09:02:27;7.30;;;3.85;;
41943;SDS011;27636;52.610;13.244;2023-05-20T09:07:31;8.95;;;3.15;;
41943;SDS011;27636;52.610;13.244;2023-05-20T09:12:35;10.43;;;3.35;;
41943;SDS011;27636;52.610;13.244;2023-05-20T09:17:41;7.00;;;3.38;;
41943;SDS011;27636;52.610;13.244;2023-05-20T09:22:45;8.27;;;3.38;;
41943;SDS011;27636;52.610;13.244;2023-05-20T09:27:48;6.53;;;3.17;;
41943;SDS011;27636;52.610;13.244;2023-05-20T09:32:54;7.50;;;3.33;;
41943;SDS011;27636;52.610;13.244;2023-05-20T09:37:58;8.00;;;2.95;;
41943;SDS011;27636;52.610;13.244;2023-05-20T09:43:02;9.32;;;3.42;;
41943;SDS011;27636;52.610;13.244;2023-05-20T09:48:08;6.88;;;3.33;;
41943;SDS011;27636;52.610;13.244;2023-05-20T09:53:13;7.95;;;3.50;;
41943;SDS011;27636;52.610;13.244;2023-05-20T09:58:18;7.90;;;3.28;;
41943;SDS011;27636;52.610;13.244;2023-05-20T10:03:23;8.02;;;3.08;;
41943;SDS011;27636;52.610;13.244;2023-05-20T10:08:34;8.32;;;3.67;;
41943;SDS011;27636;52.610;13.244;2023-05-20T10:13:58;8.93;;;3.25;;
41943;SDS011;27636;52.610;13.244;2023-05-20T10:19:15;10.75;;;4.15;;
41943;SDS011;27636;52.610;13.244;2023-05-20T10:24:28;7.95;;;3.17;;
41943;SDS011;27636;52.610;13.244;2023-05-20T10:29:41;8.80;;;3.63;;
41943;SDS011;27636;52.610;13.244;2023-05-20T10:34:47;7.32;;;3.10;;
41943;SDS011;27636;52.610;13.244;2023-05-20T10:40:01;8.18;;;3.75;;
41943;SDS011;27636;52.610;13.244;2023-05-20T10:45:10;9.02;;;3.88;;
41943;SDS011;27636;52.610;13.244;2023-05-20T10:50:25;8.50;;;4.15;;
41943;SDS011;27636;52.610;13.244;2023-05-20T10:55:34;8.40;;;4.47;;
41943;SDS011;27636;52.610;13.244;2023-05-20T11:00:39;12.13;;;3.97;;
41943;SDS011;27636;52.610;13.244;2023-05-20T11:05:45;8.45;;;3.90;;
41943;SDS011;27636;52.610;13.244;2023-05-20T11:10:49;15.55;;;4.45;;
41943;SDS011;27636;52.610;13.244;2023-05-20T11:15:53;8.02;;;3.80;;
41943;SDS011;27636;52.610;13.244;2023-05-20T11:21:00;8.77;;;4.20;;
41943;SDS011;27636;52.610;13.244;2023-05-20T11:26:04;7.63;;;3.78;;
41943;SDS011;27636;52.610;13.244;2023-05-20T11:31:08;8.82;;;4.15;;
41943;SDS011;27636;52.610;13.244;2023-05-20T11:36:13;9.48;;;4.40;;
41943;SDS011;27636;52.610;13.244;2023-05-20T11:41:29;10.15;;;4.45;;
41943;SDS011;27636;52.610;13.244;2023-05-20T11:46:33;10.82;;;4.30;;
41943;SDS011;27636;52.610;13.244;2023-05-20T11:51:45;11.07;;;4.75;;
41943;SDS011;27636;52.610;13.244;2023-05-20T11:56:49;9.75;;;4.97;;
41943;SDS011;27636;52.610;13.244;2023-05-20T12:01:53;9.50;;;4.72;;
41943;SDS011;27636;52.610;13.244;2023-05-20T12:06:58;9.73;;;5.00;;
41943;SDS011;27636;52.610;13.244;2023-05-20T12:12:02;12.10;;;5.38;;
41943;SDS011;27636;52.610;13.244;2023-05-20T12:17:06;9.50;;;4.87;;
41943;SDS011;27636;52.610;13.244;2023-05-20T12:22:10;10.45;;;4.63;;
41943;SDS011;27636;52.610;13.244;2023-05-20T12:27:14;13.77;;;4.75;;
41943;SDS011;27636;52.610;13.244;2023-05-20T12:32:17;10.57;;;4.75;;
41943;SDS011;27636;52.610;13.244;2023-05-20T12:37:24;12.38;;;5.07;;
41943;SDS011;27636;52.610;13.244;2023-05-20T12:42:28;12.65;;;4.55;;
41943;SDS011;27636;52.610;13.244;2023-05-20T12:47:32;11.07;;;5.17;;
41943;SDS011;27636;52.610;13.244;2023-05-20T12:52:37;13.67;;;6.57;;
41943;SDS011;27636;52.610;13.244;2023-05-20T12:57:41;13.40;;;4.90;;
41943;SDS011;27636;52.610;13.244;2023-05-20T13:02:46;12.65;;;4.82;;
41943;SDS011;27636;52.610;13.244;2023-05-20T13:07:51;10.43;;;4.83;;
41943;SDS011;27636;52.610;13.244;2023-05-20T13:12:55;14.98;;;4.75;;
41943;SDS011;27636;52.610;13.244;2023-05-20T13:17:58;8.77;;;4.65;;
41943;SDS011;27636;52.610;13.244;2023-05-20T13:23:04;12.27;;;4.30;;
41943;SDS011;27636;52.610;13.244;2023-05-20T13:28:08;9.23;;;4.63;;
41943;SDS011;27636;52.610;13.244;2023-05-20T13:33:12;12.10;;;5.20;;
41943;SDS011;27636;52.610;13.244;2023-05-20T13:38:17;9.48;;;4.95;;
41943;SDS011;27636;52.610;13.244;2023-05-20T13:48:24;10.15;;;5.35;;
41943;SDS011;27636;52.610;13.244;2023-05-20T13:53:29;10.05;;;5.03;;
41943;SDS011;27636;52.610;13.244;2023-05-20T13:58:32;8.02;;;4.47;;
41943;SDS011;27636;52.610;13.244;2023-05-20T14:03:35;9.60;;;4.55;;
41943;SDS011;27636;52.610;13.244;2023-05-20T14:08:41;8.73;;;4.28;;
41943;SDS011;27636;52.610;13.244;2023-05-20T14:13:45;10.93;;;4.75;;
41943;SDS011;27636;52.610;13.244;2023-05-20T14:18:48;8.07;;;4.50;;
41943;SDS011;27636;52.610;13.244;2023-05-20T14:23:54;10.20;;;5.03;;
41943;SDS011;27636;52.610;13.244;2023-05-20T14:28:58;8.88;;;4.70;;
41943;SDS011;27636;52.610;13.244;2023-05-20T14:34:01;9.93;;;5.07;;
41943;SDS011;27636;52.610;13.244;2023-05-20T14:39:06;12.95;;;5.63;;
41943;SDS011;27636;52.610;13.244;2023-05-20T14:49:13;8.45;;;4.35;;
41943;SDS011;27636;52.610;13.244;2023-05-20T14:54:18;10.05;;;5.78;;
41943;SDS011;27636;52.610;13.244;2023-05-20T14:59:26;12.70;;;5.43;;
41943;SDS011;27636;52.610;13.244;2023-05-20T15:04:31;8.30;;;4.43;;
41943;SDS011;27636;52.610;13.244;2023-05-20T15:14:40;10.05;;;4.57;;
41943;SDS011;27636;52.610;13.244;2023-05-20T15:19:44;8.07;;;4.65;;
41943;SDS011;27636;52.610;13.244;2023-05-20T15:24:49;9.07;;;4.93;;
41943;SDS011;27636;52.610;13.244;2023-05-20T15:29:53;9.00;;;5.22;;
41943;SDS011;27636;52.610;13.244;2023-05-20T15:34:56;9.65;;;4.85;;
41943;SDS011;27636;52.610;13.244;2023-05-20T15:40:01;12.38;;;5.15;;
41943;SDS011;27636;52.610;13.244;2023-05-20T15:45:07;10.52;;;4.97;;
41943;SDS011;27636;52.610;13.244;2023-05-20T15:50:11;8.75;;;4.38;;
41943;SDS011;27636;52.610;13.244;2023-05-20T15:55:16;10.13;;;4.43;;
41943;SDS011;27636;52.610;13.244;2023-05-20T16:00:20;7.22;;;3.83;;
41943;SDS011;27636;52.610;13.244;2023-05-20T16:05:24;8.70;;;4.10;;
41943;SDS011;27636;52.610;13.244;2023-05-20T16:10:29;10.85;;;4.22;;
41943;SDS011;27636;52.610;13.244;2023-05-20T16:15:36;8.10;;;3.90;;
41943;SDS011;27636;52.610;13.244;2023-05-20T16:20:40;9.57;;;4.30;;
41943;SDS011;27636;52.610;13.244;2023-05-20T16:25:45;8.48;;;4.88;;
41943;SDS011;27636;52.610;13.244;2023-05-20T16:30:48;8.18;;;4.43;;
41943;SDS011;27636;52.610;13.244;2023-05-20T16:35:52;8.00;;;4.47;;
41943;SDS011;27636;52.610;13.244;2023-05-20T16:40:58;9.13;;;4.00;;
41943;SDS011;27636;52.610;13.244;2023-05-20T16:46:02;7.72;;;3.88;;
41943;SDS011;27636;52.610;13.244;2023-05-20T16:51:06;9.13;;;4.13;;
41943;SDS011;27636;52.610;13.244;2023-05-20T16:56:11;9.93;;;3.90;;
41943;SDS011;27636;52.610;13.244;2023-05-20T17:06:18;9.38;;;4.32;;
41943;SDS011;27636;52.610;13.244;2023-05-20T17:11:23;11.55;;;5.22;;
41943;SDS011;27636;52.610;13.244;2023-05-20T17:16:27;9.02;;;3.85;;
41943;SDS011;27636;52.610;13.244;2023-05-20T17:21:31;8.67;;;4.40;;
41943;SDS011;27636;52.610;13.244;2023-05-20T17:26:37;7.65;;;3.63;;
41943;SDS011;27636;52.610;13.244;2023-05-20T17:31:41;8.10;;;3.83;;
41943;SDS011;27636;52.610;13.244;2023-05-20T17:36:46;7.60;;;3.88;;
41943;SDS011;27636;52.610;13.244;2023-05-20T17:41:51;7.43;;;4.18;;
41943;SDS011;27636;52.610;13.244;2023-05-20T17:46:54;10.23;;;4.32;;
41943;SDS011;27636;52.610;13.244;2023-05-20T17:51:58;11.23;;;4.63;;
41943;SDS011;27636;52.610;13.244;2023-05-20T17:57:03;9.75;;;4.43;;
41943;SDS011;27636;52.610;13.244;2023-05-20T18:02:07;8.80;;;4.43;;
41943;SDS011;27636;52.610;13.244;2023-05-20T18:07:11;9.07;;;4.73;;
41943;SDS011;27636;52.610;13.244;2023-05-20T18:12:16;11.57;;;4.28;;
41943;SDS011;27636;52.610;13.244;2023-05-20T18:17:20;7.68;;;4.85;;
41943;SDS011;27636;52.610;13.244;2023-05-20T18:22:23;10.40;;;4.28;;
41943;SDS011;27636;52.610;13.244;2023-05-20T18:27:29;8.82;;;4.38;;
41943;SDS011;27636;52.610;13.244;2023-05-20T18:32:34;11.63;;;4.47;;
41943;SDS011;27636;52.610;13.244;2023-05-20T18:37:38;12.80;;;4.43;;
41943;SDS011;27636;52.610;13.244;2023-05-20T18:42:43;10.02;;;4.53;;
41943;SDS011;27636;52.610;13.244;2023-05-20T18:47:47;9.05;;;4.68;;
41943;SDS011;27636;52.610;13.244;2023-05-20T18:52:50;11.70;;;4.77;;
41943;SDS011;27636;52.610;13.244;2023-05-20T18:57:55;13.48;;;5.30;;
41943;SDS011;27636;52.610;13.244;2023-05-20T19:02:59;8.70;;;4.72;;
41943;SDS011;27636;52.610;13.244;2023-05-20T19:08:04;9.00;;;5.22;;
41943;SDS011;27636;52.610;13.244;2023-05-20T19:13:10;10.68;;;5.70;;
41943;SDS011;27636;52.610;13.244;2023-05-20T19:18:13;10.73;;;5.32;;
41943;SDS011;27636;52.610;13.244;2023-05-20T19:23:17;10.05;;;4.85;;
41943;SDS011;27636;52.610;13.244;2023-05-20T19:28:22;15.35;;;5.70;;
41943;SDS011;27636;52.610;13.244;2023-05-20T19:33:25;9.90;;;5.22;;
41943;SDS011;27636;52.610;13.244;2023-05-20T19:38:29;12.10;;;5.22;;
41943;SDS011;27636;52.610;13.244;2023-05-20T19:43:34;9.13;;;4.43;;
41943;SDS011;27636;52.610;13.244;2023-05-20T19:48:37;8.98;;;4.70;;
41943;SDS011;27636;52.610;13.244;2023-05-20T19:53:41;11.35;;;5.40;;
41943;SDS011;27636;52.610;13.244;2023-05-20T19:58:47;13.38;;;5.68;;
41943;SDS011;27636;52.610;13.244;2023-05-20T20:03:50;10.98;;;5.50;;
41943;SDS011;27636;52.610;13.244;2023-05-20T20:08:55;9.70;;;5.15;;
41943;SDS011;27636;52.610;13.244;2023-05-20T20:14:00;10.63;;;5.88;;
41943;SDS011;27636;52.610;13.244;2023-05-20T20:19:04;11.32;;;6.45;;
41943;SDS011;27636;52.610;13.244;2023-05-20T20:24:08;12.70;;;6.10;;
41943;SDS011;27636;52.610;13.244;2023-05-20T20:29:13;11.75;;;5.93;;
41943;SDS011;27636;52.610;13.244;2023-05-20T20:39:19;13.35;;;5.93;;
41943;SDS011;27636;52.610;13.244;2023-05-20T20:44:25;11.77;;;5.95;;
41943;SDS011;27636;52.610;13.244;2023-05-20T20:49:30;19.13;;;6.72;;
41943;SDS011;27636;52.610;13.244;2023-05-20T20:54:34;11.38;;;6.13;;
41943;SDS011;27636;52.610;13.244;2023-05-20T20:59:39;14.25;;;6.47;;
41943;SDS011;27636;52.610;13.244;2023-05-20T21:04:49;11.50;;;6.57;;
41943;SDS011;27636;52.610;13.244;2023-05-20T21:09:53;18.63;;;6.30;;
41943;SDS011;27636;52.610;13.244;2023-05-20T21:14:58;12.80;;;6.67;;
41943;SDS011;27636;52.610;13.244;2023-05-20T21:20:03;14.07;;;6.70;;
41943;SDS011;27636;52.610;13.244;2023-05-20T21:25:08;13.82;;;7.53;;
41943;SDS011;27636;52.610;13.244;2023-05-20T21:30:13;11.13;;;6.25;;
41943;SDS011;27636;52.610;13.244;2023-05-20T21:35:18;14.18;;;6.80;;
41943;SDS011;27636;52.610;13.244;2023-05-20T21:40:22;10.13;;;6.30;;
41943;SDS011;27636;52.610;13.244;2023-05-20T21:45:26;13.02;;;7.20;;
41943;SDS011;27636;52.610;13.244;2023-05-20T21:50:30;14.85;;;7.50;;
41943;SDS011;27636;52.610;13.244;2023-05-20T21:55:34;11.38;;;7.32;;
41943;SDS011;27636;52.610;13.244;2023-05-20T22:00:40;16.17;;;7.57;;
41943;SDS011;27636;52.610;13.244;2023-05-20T22:05:43;15.48;;;7.95;;
41943;SDS011;27636;52.610;13.244;2023-05-20T22:10:47;15.80;;;8.88;;
41943;SDS011;27636;52.610;13.244;2023-05-20T22:15:52;13.23;;;7.45;;
41943;SDS011;27636;52.610;13.244;2023-05-20T22:20:56;22.27;;;9.07;;
41943;SDS011;27636;52.610;13.244;2023-05-20T22:26:03;11.60;;;7.28;;
41943;SDS011;27636;52.610;13.244;2023-05-20T22:31:09;12.77;;;7.18;;
41943;SDS011;27636;52.610;13.244;2023-05-20T22:36:16;17.55;;;9.15;;
41943;SDS011;27636;52.610;13.244;2023-05-20T22:41:19;15.10;;;8.90;;
41943;SDS011;27636;52.610;13.244;2023-05-20T22:46:25;18.08;;;9.65;;
41943;SDS011;27636;52.610;13.244;2023-05-20T22:51:28;16.25;;;8.30;;
41943;SDS011;27636;52.610;13.244;2023-05-20T22:56:35;16.27;;;9.15;;
41943;SDS011;27636;52.610;13.244;2023-05-20T23:01:40;15.73;;;9.07;;
41943;SDS011;27636;52.610;13.244;2023-05-20T23:06:48;18.63;;;9.82;;
41943;SDS011;27636;52.610;13.244;2023-05-20T23:11:55;18.23;;;9.88;;
41943;SDS011;27636;52.610;13.244;2023-05-20T23:17:00;20.25;;;10.10;;
41943;SDS011;27636;52.610;13.244;2023-05-20T23:27:08;19.17;;;10.05;;
41943;SDS011;27636;52.610;13.244;2023-05-20T23:32:13;20.23;;;11.45;;
41943;SDS011;27636;52.610;13.244;2023-05-20T23:37:16;21.33;;;12.00;;
41943;SDS011;27636;52.610;13.244;2023-05-20T23:42:20;19.13;;;11.25;;
41943;SDS011;27636;52.610;13.244;2023-05-20T23:47:25;26.95;;;11.57;;
41943;SDS011;27636;52.610;13.244;2023-05-20T23:52:31;18.80;;;11.18;;
41943;SDS011;27636;52.610;13.244;2023-05-20T23:57:35;20.23;;;11.15;;
